PWSweather.com
Personal Weather Stations
Station Observations
GRD01
Warsaw, LesznoPL 05-084

WarsawLesznoPL 05-084

Lat: 52.257404, Lon: 20.564847

Elevation: 298

Station Type: WH3080

http://pogoda.kampinos.waw.pl

High Low Average
Temperature 75.0°F23.9°C 57.2°F14.0°C 65.7°F18.7°C
Dew Point 57.4°F14.1°C 47.1°F8.4°C 52.2°F11.2°C
Winds 7.6 mph 12.2 kmh Calm Calm 3.0 mph SE4.8 kmh SE
Wind Gusts 14.5 mph23.3 kmh 2.2 mph3.5 kmh 6.0 mph9.7 kmh
Humidity 89% 44% 63%
Pressure 29.64 in1003.7 mb 29.59 in1002.0 mb -
Precipitation 0.02 in0.5 mm - -
Hour Temp Dew Point Humidity Winds Wind Gusts Pressure Precip Precip Rate Daily Precip Total
12:00 AM 61.5°F16.4°C 49.6°F9.8°C 65% 3.1 mph E5.0 kmh E 6.9 mph11.1 kmh 29.63 in1003.4 mb 0.00 in0.0 mm 0.00 in0.0 mm 0.00 in0.0 mm
12:15 AM 61.3°F16.3°C 49.5°F9.7°C 65% 2.2 mph E3.5 kmh E 5.4 mph8.7 kmh 29.63 in1003.4 mb 0.00 in0.0 mm 0.00 in0.0 mm 0.00 in0.0 mm
12:30 AM 61.0°F16.1°C 49.5°F9.7°C 66% 2.2 mph E3.5 kmh E 3.8 mph6.1 kmh 29.63 in1003.4 mb 0.00 in0.0 mm 0.00 in0.0 mm 0.00 in0.0 mm
12:45 AM 60.8°F16.0°C 49.4°F9.7°C 66% 3.8 mph E6.1 kmh E 5.4 mph8.7 kmh 29.62 in1003.0 mb 0.00 in0.0 mm 0.00 in0.0 mm 0.00 in0.0 mm
01:00 AM 60.8°F16.0°C 49.4°F9.7°C 66% 3.8 mph E6.1 kmh E 5.4 mph8.7 kmh 29.63 in1003.4 mb 0.00 in0.0 mm 0.00 in0.0 mm 0.00 in0.0 mm
01:15 AM 60.8°F16.0°C 49.4°F9.7°C 66% 2.2 mph SE3.5 kmh SE 5.4 mph8.7 kmh 29.62 in1003.0 mb 0.00 in0.0 mm 0.00 in0.0 mm 0.00 in0.0 mm
01:30 AM 60.4°F15.8°C 49.0°F9.4°C 66% 3.1 mph SE5.0 kmh SE 3.8 mph6.1 kmh 29.62 in1003.0 mb 0.00 in0.0 mm 0.00 in0.0 mm 0.00 in0.0 mm
01:45 AM 59.9°F15.5°C 48.9°F9.4°C 67% 2.2 mph E3.5 kmh E 4.5 mph7.2 kmh 29.62 in1003.0 mb 0.00 in0.0 mm 0.00 in0.0 mm 0.00 in0.0 mm
02:00 AM 59.5°F15.3°C 49.0°F9.4°C 68% 2.2 mph E3.5 kmh E 4.5 mph7.2 kmh 29.62 in1003.0 mb 0.00 in0.0 mm 0.00 in0.0 mm 0.00 in0.0 mm
02:15 AM 59.2°F15.1°C 48.6°F9.2°C 68% 3.8 mph ESE6.1 kmh ESE 4.5 mph7.2 kmh 29.61 in1002.7 mb 0.00 in0.0 mm 0.00 in0.0 mm 0.00 in0.0 mm
02:30 AM 59.0°F15.0°C 48.4°F9.1°C 68% 3.1 mph SE5.0 kmh SE 6.0 mph9.7 kmh 29.61 in1002.7 mb 0.00 in0.0 mm 0.00 in0.0 mm 0.00 in0.0 mm
02:45 AM 58.8°F14.9°C 48.3°F9.1°C 68% 5.4 mph SE8.7 kmh SE 6.9 mph11.1 kmh 29.61 in1002.7 mb 0.00 in0.0 mm 0.00 in0.0 mm 0.00 in0.0 mm
03:00 AM 58.6°F14.8°C 47.7°F8.7°C 67% 1.6 mph E2.6 kmh E 6.0 mph9.7 kmh 29.61 in1002.7 mb 0.00 in0.0 mm 0.00 in0.0 mm 0.00 in0.0 mm
03:15 AM 58.5°F14.7°C 47.9°F8.8°C 68% 1.6 mph ESE2.6 kmh ESE 3.8 mph6.1 kmh 29.61 in1002.7 mb 0.00 in0.0 mm 0.00 in0.0 mm 0.00 in0.0 mm
03:30 AM 58.1°F14.5°C 47.6°F8.7°C 68% 3.1 mph E5.0 kmh E 4.5 mph7.2 kmh 29.61 in1002.7 mb 0.00 in0.0 mm 0.00 in0.0 mm 0.00 in0.0 mm
03:45 AM 57.7°F14.3°C 47.2°F8.4°C 68% 3.1 mph ESE5.0 kmh ESE 4.5 mph7.2 kmh 29.60 in1002.4 mb 0.00 in0.0 mm 0.00 in0.0 mm 0.00 in0.0 mm
04:00 AM 57.6°F14.2°C 47.5°F8.6°C 69% 1.6 mph SE2.6 kmh SE 3.8 mph6.1 kmh 29.61 in1002.7 mb 0.00 in0.0 mm 0.00 in0.0 mm 0.00 in0.0 mm
04:15 AM 57.2°F14.0°C 47.1°F8.4°C 69% 0.7 mph E1.1 kmh E 4.5 mph7.2 kmh 29.61 in1002.7 mb 0.00 in0.0 mm 0.00 in0.0 mm 0.00 in0.0 mm
04:30 AM 57.2°F14.0°C 47.1°F8.4°C 69% 2.2 mph E3.5 kmh E 3.8 mph6.1 kmh 29.61 in1002.7 mb 0.00 in0.0 mm 0.00 in0.0 mm 0.00 in0.0 mm
04:45 AM 57.4°F14.1°C 47.3°F8.5°C 69% 3.1 mph ESE5.0 kmh ESE 3.8 mph6.1 kmh 29.60 in1002.4 mb 0.00 in0.0 mm 0.00 in0.0 mm 0.00 in0.0 mm
05:00 AM 57.4°F14.1°C 47.3°F8.5°C 69% 2.2 mph SE3.5 kmh SE 3.8 mph6.1 kmh 29.62 in1003.0 mb 0.00 in0.0 mm 0.00 in0.0 mm 0.00 in0.0 mm
05:15 AM 57.6°F14.2°C 47.1°F8.4°C 68% 2.2 mph SE3.5 kmh SE 3.8 mph6.1 kmh 29.62 in1003.0 mb 0.00 in0.0 mm 0.00 in0.0 mm 0.00 in0.0 mm
05:30 AM 57.6°F14.2°C 47.1°F8.4°C 68% 2.2 mph E3.5 kmh E 3.1 mph5.0 kmh 29.61 in1002.7 mb 0.00 in0.0 mm 0.00 in0.0 mm 0.00 in0.0 mm
05:45 AM 57.7°F14.3°C 47.2°F8.4°C 68% 2.2 mph NE3.5 kmh NE 4.5 mph7.2 kmh 29.61 in1002.7 mb 0.00 in0.0 mm 0.00 in0.0 mm 0.00 in0.0 mm
06:00 AM 57.6°F14.2°C 47.8°F8.8°C 70% 2.2 mph SE3.5 kmh SE 8.3 mph13.4 kmh 29.62 in1003.0 mb 0.00 in0.0 mm 0.00 in0.0 mm 0.00 in0.0 mm
06:15 AM 57.7°F14.3°C 48.0°F8.9°C 70% 2.2 mph ESE3.5 kmh ESE 3.8 mph6.1 kmh 29.61 in1002.7 mb 0.00 in0.0 mm 0.00 in0.0 mm 0.00 in0.0 mm
06:30 AM 58.1°F14.5°C 48.4°F9.1°C 70% Calm Calm 2.2 mph3.5 kmh 29.62 in1003.0 mb 0.00 in0.0 mm 0.00 in0.0 mm 0.00 in0.0 mm
06:45 AM 59.0°F15.0°C 49.2°F9.6°C 70% 2.2 mph S3.5 kmh S 3.1 mph5.0 kmh 29.62 in1003.0 mb 0.00 in0.0 mm 0.00 in0.0 mm 0.00 in0.0 mm
07:00 AM 59.5°F15.3°C 49.0°F9.4°C 68% 3.8 mph SE6.1 kmh SE 5.4 mph8.7 kmh 29.62 in1003.0 mb 0.00 in0.0 mm 0.00 in0.0 mm 0.00 in0.0 mm
07:15 AM 59.9°F15.5°C 49.3°F9.6°C 68% 1.6 mph SE2.6 kmh SE 4.5 mph7.2 kmh 29.62 in1003.0 mb 0.00 in0.0 mm 0.00 in0.0 mm 0.00 in0.0 mm
07:30 AM 60.6°F15.9°C 50.0°F10.0°C 68% 4.5 mph SE7.2 kmh SE 5.4 mph8.7 kmh 29.62 in1003.0 mb 0.00 in0.0 mm 0.00 in0.0 mm 0.00 in0.0 mm
07:45 AM 61.5°F16.4°C 49.6°F9.8°C 65% 2.2 mph SE3.5 kmh SE 6.0 mph9.7 kmh 29.62 in1003.0 mb 0.00 in0.0 mm 0.00 in0.0 mm 0.00 in0.0 mm
08:00 AM 62.6°F17.0°C 50.7°F10.4°C 65% 2.2 mph E3.5 kmh E 3.8 mph6.1 kmh 29.62 in1003.0 mb 0.00 in0.0 mm 0.00 in0.0 mm 0.00 in0.0 mm
08:15 AM 63.7°F17.6°C 50.4°F10.2°C 62% 1.6 mph SSE2.6 kmh SSE 3.1 mph5.0 kmh 29.63 in1003.4 mb 0.00 in0.0 mm 0.00 in0.0 mm 0.00 in0.0 mm
08:30 AM 64.2°F17.9°C 50.5°F10.3°C 61% 4.5 mph SSE7.2 kmh SSE 6.0 mph9.7 kmh 29.63 in1003.4 mb 0.00 in0.0 mm 0.00 in0.0 mm 0.00 in0.0 mm
08:45 AM 64.8°F18.2°C 51.0°F10.6°C 61% 2.2 mph SSE3.5 kmh SSE 5.4 mph8.7 kmh 29.63 in1003.4 mb 0.00 in0.0 mm 0.00 in0.0 mm 0.00 in0.0 mm
09:00 AM 65.3°F18.5°C 51.1°F10.6°C 60% 1.6 mph SE2.6 kmh SE 5.4 mph8.7 kmh 29.64 in1003.7 mb 0.00 in0.0 mm 0.00 in0.0 mm 0.00 in0.0 mm
09:15 AM 66.2°F19.0°C 52.3°F11.3°C 61% 0.7 mph SE1.1 kmh SE 3.8 mph6.1 kmh 29.63 in1003.4 mb 0.00 in0.0 mm 0.00 in0.0 mm 0.00 in0.0 mm
09:30 AM 67.3°F19.6°C 53.4°F11.9°C 61% 1.6 mph S2.6 kmh S 5.4 mph8.7 kmh 29.64 in1003.7 mb 0.00 in0.0 mm 0.00 in0.0 mm 0.00 in0.0 mm
09:45 AM 69.1°F20.6°C 54.6°F12.6°C 60% 4.5 mph SW7.2 kmh SW 6.9 mph11.1 kmh 29.64 in1003.7 mb 0.00 in0.0 mm 0.00 in0.0 mm 0.00 in0.0 mm
10:00 AM 70.2°F21.2°C 53.2°F11.8°C 55% 0.7 mph SW1.1 kmh SW 8.3 mph13.4 kmh 29.64 in1003.7 mb 0.00 in0.0 mm 0.00 in0.0 mm 0.00 in0.0 mm
10:15 AM 71.1°F21.7°C 53.6°F12.0°C 54% 5.4 mph SW8.7 kmh SW 7.6 mph12.2 kmh 29.64 in1003.7 mb 0.00 in0.0 mm 0.00 in0.0 mm 0.00 in0.0 mm
10:30 AM 71.4°F21.9°C 53.4°F11.9°C 53% 6.0 mph SW9.7 kmh SW 9.8 mph15.8 kmh 29.64 in1003.7 mb 0.00 in0.0 mm 0.00 in0.0 mm 0.00 in0.0 mm
10:45 AM 71.4°F21.9°C 53.9°F12.2°C 54% 4.5 mph SW7.2 kmh SW 9.2 mph14.8 kmh 29.64 in1003.7 mb 0.00 in0.0 mm 0.00 in0.0 mm 0.00 in0.0 mm
11:00 AM 71.4°F21.9°C 53.9°F12.2°C 54% 5.4 mph SW8.7 kmh SW 11.4 mph18.3 kmh 29.64 in1003.7 mb 0.00 in0.0 mm 0.00 in0.0 mm 0.00 in0.0 mm
11:15 AM 71.4°F21.9°C 54.4°F12.4°C 55% 7.6 mph WSW12.2 kmh WSW 14.5 mph23.3 kmh 29.64 in1003.7 mb 0.00 in0.0 mm 0.00 in0.0 mm 0.00 in0.0 mm
11:30 AM 72.1°F22.3°C 55.1°F12.8°C 55% 7.6 mph WNW12.2 kmh WNW 11.4 mph18.3 kmh 29.64 in1003.7 mb 0.00 in0.0 mm 0.00 in0.0 mm 0.00 in0.0 mm
11:45 AM 73.2°F22.9°C 53.5°F11.9°C 50% 4.5 mph SW7.2 kmh SW 11.4 mph18.3 kmh 29.63 in1003.4 mb 0.00 in0.0 mm 0.00 in0.0 mm 0.00 in0.0 mm
12:00 PM 72.9°F22.7°C 53.1°F11.7°C 50% 3.8 mph W6.1 kmh W 13.0 mph20.9 kmh 29.63 in1003.4 mb 0.00 in0.0 mm 0.00 in0.0 mm 0.00 in0.0 mm
12:15 PM 72.7°F22.6°C 53.5°F11.9°C 51% Calm Calm 6.9 mph11.1 kmh 29.62 in1003.0 mb 0.00 in0.0 mm 0.00 in0.0 mm 0.00 in0.0 mm
12:30 PM 72.0°F22.2°C 53.9°F12.2°C 53% 1.6 mph SW2.6 kmh SW 5.4 mph8.7 kmh 29.62 in1003.0 mb 0.00 in0.0 mm 0.00 in0.0 mm 0.00 in0.0 mm
12:45 PM 71.8°F22.1°C 54.2°F12.3°C 54% 3.8 mph WSW6.1 kmh WSW 5.4 mph8.7 kmh 29.63 in1003.4 mb 0.00 in0.0 mm 0.00 in0.0 mm 0.00 in0.0 mm
01:00 PM 72.0°F22.2°C 54.9°F12.7°C 55% 3.8 mph N6.1 kmh N 5.4 mph8.7 kmh 29.62 in1003.0 mb 0.00 in0.0 mm 0.00 in0.0 mm 0.00 in0.0 mm
01:15 PM 72.5°F22.5°C 53.9°F12.2°C 52% Calm Calm 5.4 mph8.7 kmh 29.61 in1002.7 mb 0.00 in0.0 mm 0.00 in0.0 mm 0.00 in0.0 mm
01:30 PM 72.9°F22.7°C 53.1°F11.7°C 50% 0.7 mph NE1.1 kmh NE 4.5 mph7.2 kmh 29.61 in1002.7 mb 0.00 in0.0 mm 0.00 in0.0 mm 0.00 in0.0 mm
01:45 PM 73.0°F22.8°C 53.3°F11.8°C 50% 3.8 mph N6.1 kmh N 6.9 mph11.1 kmh 29.61 in1002.7 mb 0.00 in0.0 mm 0.00 in0.0 mm 0.00 in0.0 mm
02:00 PM 73.0°F22.8°C 52.7°F11.5°C 49% 2.2 mph NNE3.5 kmh NNE 3.1 mph5.0 kmh 29.61 in1002.7 mb 0.00 in0.0 mm 0.00 in0.0 mm 0.00 in0.0 mm
02:15 PM 73.4°F23.0°C 52.5°F11.4°C 48% 3.8 mph NNE6.1 kmh NNE 6.0 mph9.7 kmh 29.60 in1002.4 mb 0.00 in0.0 mm 0.00 in0.0 mm 0.00 in0.0 mm
02:30 PM 73.6°F23.1°C 51.5°F10.8°C 46% 6.9 mph NNE11.1 kmh NNE 8.3 mph13.4 kmh 29.60 in1002.4 mb 0.00 in0.0 mm 0.00 in0.0 mm 0.00 in0.0 mm
02:45 PM 73.9°F23.3°C 51.8°F11.0°C 46% 6.0 mph ESE9.7 kmh ESE 7.6 mph12.2 kmh 29.59 in1002.0 mb 0.00 in0.0 mm 0.00 in0.0 mm 0.00 in0.0 mm
03:00 PM 75.0°F23.9°C 52.2°F11.2°C 45% 3.8 mph SE6.1 kmh SE 8.3 mph13.4 kmh 29.59 in1002.0 mb 0.00 in0.0 mm 0.00 in0.0 mm 0.00 in0.0 mm
03:15 PM 75.0°F23.9°C 52.2°F11.2°C 45% 3.1 mph SE5.0 kmh SE 6.9 mph11.1 kmh 29.60 in1002.4 mb 0.00 in0.0 mm 0.00 in0.0 mm 0.00 in0.0 mm
03:30 PM 74.8°F23.8°C 51.5°F10.8°C 44% Calm Calm 4.5 mph7.2 kmh 29.59 in1002.0 mb 0.00 in0.0 mm 0.00 in0.0 mm 0.00 in0.0 mm
03:45 PM 74.5°F23.6°C 51.7°F10.9°C 45% 3.1 mph SE5.0 kmh SE 6.0 mph9.7 kmh 29.59 in1002.0 mb 0.00 in0.0 mm 0.00 in0.0 mm 0.00 in0.0 mm
04:00 PM 74.3°F23.5°C 52.2°F11.2°C 46% 3.1 mph E5.0 kmh E 5.4 mph8.7 kmh 29.59 in1002.0 mb 0.00 in0.0 mm 0.00 in0.0 mm 0.00 in0.0 mm
04:15 PM 73.9°F23.3°C 52.4°F11.3°C 47% 1.6 mph SE2.6 kmh SE 3.1 mph5.0 kmh 29.59 in1002.0 mb 0.00 in0.0 mm 0.00 in0.0 mm 0.00 in0.0 mm
04:30 PM 73.6°F23.1°C 52.1°F11.2°C 47% 0.7 mph ESE1.1 kmh ESE 4.5 mph7.2 kmh 29.59 in1002.0 mb 0.00 in0.0 mm 0.00 in0.0 mm 0.00 in0.0 mm
04:45 PM 73.2°F22.9°C 52.3°F11.3°C 48% 2.2 mph E3.5 kmh E 3.8 mph6.1 kmh 29.59 in1002.0 mb 0.00 in0.0 mm 0.00 in0.0 mm 0.00 in0.0 mm
05:00 PM 73.0°F22.8°C 52.7°F11.5°C 49% Calm Calm 3.8 mph6.1 kmh 29.59 in1002.0 mb 0.00 in0.0 mm 0.00 in0.0 mm 0.00 in0.0 mm
05:15 PM 72.5°F22.5°C 52.8°F11.6°C 50% 1.6 mph NE2.6 kmh NE 2.2 mph3.5 kmh 29.59 in1002.0 mb 0.00 in0.0 mm 0.00 in0.0 mm 0.00 in0.0 mm
05:30 PM 72.0°F22.2°C 54.4°F12.4°C 54% Calm Calm 3.1 mph5.0 kmh 29.59 in1002.0 mb 0.00 in0.0 mm 0.00 in0.0 mm 0.00 in0.0 mm
05:45 PM 71.6°F22.0°C 54.6°F12.6°C 55% Calm Calm 2.2 mph3.5 kmh 29.59 in1002.0 mb 0.00 in0.0 mm 0.00 in0.0 mm 0.00 in0.0 mm
06:00 PM 71.2°F21.8°C 54.7°F12.6°C 56% Calm Calm 3.1 mph5.0 kmh 29.59 in1002.0 mb 0.00 in0.0 mm 0.00 in0.0 mm 0.00 in0.0 mm
06:15 PM 70.7°F21.5°C 55.2°F12.9°C 58% 0.7 mph NE1.1 kmh NE 2.2 mph3.5 kmh 29.59 in1002.0 mb 0.00 in0.0 mm 0.00 in0.0 mm 0.00 in0.0 mm
06:30 PM 70.0°F21.1°C 55.0°F12.8°C 59% Calm Calm 3.8 mph6.1 kmh 29.59 in1002.0 mb 0.00 in0.0 mm 0.00 in0.0 mm 0.00 in0.0 mm
06:45 PM 69.6°F20.9°C 54.7°F12.6°C 59% 2.2 mph NE3.5 kmh NE 3.8 mph6.1 kmh 29.59 in1002.0 mb 0.00 in0.0 mm 0.00 in0.0 mm 0.00 in0.0 mm
07:00 PM 69.4°F20.8°C 54.5°F12.5°C 59% 1.6 mph NE2.6 kmh NE 3.1 mph5.0 kmh 29.59 in1002.0 mb 0.00 in0.0 mm 0.00 in0.0 mm 0.00 in0.0 mm
07:15 PM 69.1°F20.6°C 54.6°F12.6°C 60% 4.5 mph SW7.2 kmh SW 6.9 mph11.1 kmh 29.61 in1002.7 mb 0.00 in0.0 mm 0.00 in0.0 mm 0.00 in0.0 mm
07:30 PM 68.4°F20.2°C 55.3°F12.9°C 63% 2.2 mph WNW3.5 kmh WNW 6.0 mph9.7 kmh 29.61 in1002.7 mb 0.00 in0.0 mm 0.00 in0.0 mm 0.00 in0.0 mm
07:45 PM 67.5°F19.7°C 55.3°F12.9°C 65% 2.2 mph NW3.5 kmh NW 6.0 mph9.7 kmh 29.60 in1002.4 mb 0.00 in0.0 mm 0.00 in0.0 mm 0.00 in0.0 mm
08:00 PM 66.7°F19.3°C 55.4°F13.0°C 67% 6.0 mph WNW9.7 kmh WNW 9.8 mph15.8 kmh 29.62 in1003.0 mb 0.00 in0.0 mm 0.00 in0.0 mm 0.00 in0.0 mm
08:15 PM 66.0°F18.9°C 56.0°F13.3°C 70% 0.7 mph WSW1.1 kmh WSW 9.2 mph14.8 kmh 29.62 in1003.0 mb 0.00 in0.0 mm 0.00 in0.0 mm 0.00 in0.0 mm
08:30 PM 65.3°F18.5°C 55.7°F13.2°C 71% 1.6 mph SSW2.6 kmh SSW 5.4 mph8.7 kmh 29.62 in1003.0 mb 0.00 in0.0 mm 0.00 in0.0 mm 0.00 in0.0 mm
08:45 PM 64.6°F18.1°C 55.7°F13.2°C 73% 5.4 mph SW8.7 kmh SW 9.8 mph15.8 kmh 29.62 in1003.0 mb 0.00 in0.0 mm 0.00 in0.0 mm 0.00 in0.0 mm
09:00 PM 64.2°F17.9°C 55.8°F13.2°C 74% Calm Calm 6.0 mph9.7 kmh 29.62 in1003.0 mb 0.00 in0.0 mm 0.00 in0.0 mm 0.00 in0.0 mm
09:15 PM 64.0°F17.8°C 56.0°F13.3°C 75% Calm Calm 7.6 mph12.2 kmh 29.62 in1003.0 mb 0.00 in0.0 mm 0.00 in0.0 mm 0.00 in0.0 mm
09:30 PM 63.7°F17.6°C 56.0°F13.3°C 76% 3.8 mph S6.1 kmh S 6.0 mph9.7 kmh 29.62 in1003.0 mb 0.00 in0.0 mm 0.00 in0.0 mm 0.00 in0.0 mm
09:45 PM 63.3°F17.4°C 57.4°F14.1°C 81% 4.5 mph WSW7.2 kmh WSW 6.0 mph9.7 kmh 29.63 in1003.4 mb 0.00 in0.0 mm 0.00 in0.0 mm 0.00 in0.0 mm
10:00 PM 62.8°F17.1°C 57.2°F14.0°C 82% 3.1 mph SSE5.0 kmh SSE 6.0 mph9.7 kmh 29.63 in1003.4 mb 0.00 in0.0 mm 0.00 in0.0 mm 0.00 in0.0 mm
10:15 PM 62.4°F16.9°C 57.2°F14.0°C 83% 4.5 mph SW7.2 kmh SW 6.0 mph9.7 kmh 29.64 in1003.7 mb 0.00 in0.0 mm 0.00 in0.0 mm 0.00 in0.0 mm
10:30 PM 62.1°F16.7°C 57.2°F14.0°C 84% 3.1 mph SSW5.0 kmh SSW 6.0 mph9.7 kmh 29.63 in1003.4 mb 0.01 in0.3 mm 0.04 in1.0 mm 0.01 in0.3 mm
10:45 PM 61.7°F16.5°C 57.1°F13.9°C 85% 1.6 mph SSW2.6 kmh SSW 3.1 mph5.0 kmh 29.64 in1003.7 mb 0.02 in0.5 mm 0.04 in1.0 mm 0.02 in0.5 mm
11:00 PM 61.3°F16.3°C 57.1°F13.9°C 86% 1.6 mph SW2.6 kmh SW 6.0 mph9.7 kmh 29.63 in1003.4 mb 0.05 in1.3 mm 0.04 in1.0 mm 0.05 in1.3 mm
11:15 PM 61.2°F16.2°C 57.3°F14.1°C 87% 3.1 mph SW5.0 kmh SW 6.9 mph11.1 kmh 29.64 in1003.7 mb 0.05 in1.3 mm 0.00 in0.0 mm 0.05 in1.3 mm
11:30 PM 60.8°F16.0°C 57.2°F14.0°C 88% 2.2 mph SSW3.5 kmh SSW 4.5 mph7.2 kmh 29.64 in1003.7 mb 0.04 in1.0 mm 0.00 in0.0 mm 0.05 in1.3 mm
11:45 PM 60.6°F15.9°C 57.4°F14.1°C 89% 0.7 mph S1.1 kmh S 3.8 mph6.1 kmh 29.64 in1003.7 mb 0.04 in1.0 mm 0.00 in0.0 mm 0.01 in0.3 mm